Time;durP1;ratioP1;P1;durP2;ratioP2;P2;SDS_P1;SDS_P2;PMS_P1;PMS_P2;Temp;Humidity;BMP_temperature;BMP_pressure;BME280_temperature;BME280_humidity;BME280_pressure;Samples;Min_cycle;Max_cycle;Signal;HPM_P1;HPM_P2
2022/08/30 00:03:47;;;;;;;8.77;4.45;;;;;;;14.60;77.23;101751.59;10430181;28;20524;-73
2022/08/30 00:08:47;;;;;;;12.60;5.32;;;;;;;14.74;77.24;101756.63;10454582;28;20041;-73
2022/08/30 00:13:49;;;;;;;14.88;4.72;;;;;;;14.77;77.87;101747.13;10427023;28;20037;-73
2022/08/30 00:18:50;;;;;;;9.53;4.93;;;;;;;14.81;78.96;101748.16;10432768;28;20129;-73
2022/08/30 00:23:50;;;;;;;9.40;5.55;;;;;;;14.81;79.51;101748.16;10439394;28;20045;-73
2022/08/30 00:28:51;;;;;;;10.10;6.15;;;;;;;14.95;79.31;101748.78;10465300;28;20041;-73
2022/08/30 00:33:51;;;;;;;9.00;3.88;;;;;;;15.16;78.83;101753.16;10426045;28;20033;-73
2022/08/30 00:38:52;;;;;;;7.35;4.05;;;;;;;15.32;78.51;101758.28;10429630;28;20819;-74
2022/08/30 00:43:52;;;;;;;6.43;4.43;;;;;;;15.36;78.45;101751.38;10417100;28;20029;-74
2022/08/30 00:48:54;;;;;;;10.95;4.28;;;;;;;15.43;78.27;101750.78;10425000;28;20120;-73
2022/08/30 00:53:55;;;;;;;14.68;4.65;;;;;;;15.42;78.51;101749.00;10413284;28;20146;-73
2022/08/30 00:58:56;;;;;;;9.60;4.60;;;;;;;15.39;79.16;101749.78;10435320;28;20086;-73
2022/08/30 01:03:58;;;;;;;12.95;4.93;;;;;;;15.39;79.01;101740.94;10424893;28;20151;-74
2022/08/30 01:08:58;;;;;;;6.70;4.60;;;;;;;15.36;79.73;101748.72;10422623;28;20761;-73
2022/08/30 01:13:59;;;;;;;11.18;5.70;;;;;;;15.45;79.54;101751.75;10421035;28;20120;-72
2022/08/30 01:19:00;;;;;;;7.85;5.43;;;;;;;15.54;79.35;101753.88;10399357;28;20045;-73
2022/08/30 01:24:00;;;;;;;11.13;4.55;;;;;;;15.57;79.26;101760.19;10421332;28;20432;-73
2022/08/30 01:29:07;;;;;;;11.43;4.85;;;;;;;15.53;79.25;101760.00;10432820;28;20044;-72
2022/08/30 01:34:07;;;;;;;11.88;5.35;;;;;;;15.54;79.56;101765.31;10425760;28;20045;-72
2022/08/30 01:39:08;;;;;;;10.80;5.30;;;;;;;15.43;80.23;101765.72;10383928;28;20038;-72
2022/08/30 01:44:09;;;;;;;9.13;5.15;;;;;;;15.35;80.44;101757.47;10382663;28;20041;-73
2022/08/30 01:49:12;;;;;;;8.90;5.13;;;;;;;15.15;81.68;101768.06;10369426;28;20076;-72
2022/08/30 01:54:12;;;;;;;8.93;5.72;;;;;;;14.96;82.21;101762.00;10385420;28;20516;-73
2022/08/30 01:59:13;;;;;;;9.40;5.20;;;;;;;14.68;83.34;101766.00;10384466;28;20128;-72
2022/08/30 02:04:14;;;;;;;11.98;5.20;;;;;;;14.52;85.08;101764.44;10375685;28;20044;-73
2022/08/30 02:09:14;;;;;;;9.68;5.25;;;;;;;14.43;85.51;101757.81;10388067;28;20628;-73
2022/08/30 02:14:15;;;;;;;13.63;5.63;;;;;;;14.35;86.13;101757.47;10380698;28;20095;-73
2022/08/30 02:19:16;;;;;;;8.15;5.20;;;;;;;14.27;86.70;101758.84;10386231;28;20187;-72
2022/08/30 02:24:17;;;;;;;10.10;5.77;;;;;;;14.12;86.81;101756.38;10395634;28;20042;-73
2022/08/30 02:29:19;;;;;;;12.77;5.75;;;;;;;14.03;88.16;101756.88;10387483;28;20543;-73
2022/08/30 02:34:20;;;;;;;14.43;6.07;;;;;;;13.94;88.52;101762.56;10377856;28;20032;-73
2022/08/30 02:39:20;;;;;;;11.52;6.50;;;;;;;13.97;89.64;101751.31;10379080;28;21457;-73
2022/08/30 02:44:21;;;;;;;13.45;6.25;;;;;;;14.01;89.77;101748.88;10382738;28;20047;-73
2022/08/30 02:49:21;;;;;;;7.60;4.47;;;;;;;14.08;89.90;101740.44;10371528;28;20430;-72
2022/08/30 02:54:22;;;;;;;11.98;5.30;;;;;;;14.16;89.97;101732.00;10387855;28;20042;-72
2022/08/30 02:59:22;;;;;;;10.63;6.38;;;;;;;14.12;90.24;101724.81;10371541;28;20124;-72
2022/08/30 03:04:23;;;;;;;9.75;5.47;;;;;;;14.08;89.98;101731.66;10374246;28;20125;-72
2022/08/30 03:09:23;;;;;;;11.43;6.40;;;;;;;14.08;90.05;101735.19;10383607;28;20945;-73
2022/08/30 03:14:24;;;;;;;10.27;5.68;;;;;;;14.16;89.70;101726.75;10374483;28;20041;-72
2022/08/30 03:19:24;;;;;;;6.55;5.63;;;;;;;14.08;90.21;101734.31;10412587;28;20043;-72
2022/08/30 03:24:25;;;;;;;8.63;5.97;;;;;;;13.94;90.70;101734.53;10418691;28;20124;-72
2022/08/30 03:29:25;;;;;;;9.55;5.47;;;;;;;13.75;90.66;101734.50;10444015;28;20041;-72
2022/08/30 03:34:26;;;;;;;9.73;5.15;;;;;;;13.54;92.00;101739.59;10458816;28;20037;-72
2022/08/30 03:39:27;;;;;;;13.68;6.30;;;;;;;13.39;93.43;101737.97;10458510;28;20079;-73
2022/08/30 03:44:27;;;;;;;9.40;6.85;;;;;;;13.20;94.04;101739.66;10472127;28;20127;-73
2022/08/30 03:49:28;;;;;;;8.20;5.43;;;;;;;13.24;94.94;101740.75;10453314;28;20115;-73
2022/08/30 03:54:28;;;;;;;10.43;6.60;;;;;;;13.28;95.36;101736.53;10468048;28;20049;-73
2022/08/30 03:59:29;;;;;;;9.60;6.10;;;;;;;13.28;96.31;101747.03;10463128;28;20112;-73
2022/08/30 04:04:29;;;;;;;12.07;6.88;;;;;;;13.29;96.09;101739.25;10447947;28;20133;-73
2022/08/30 04:09:30;;;;;;;13.50;6.97;;;;;;;13.30;96.14;101745.38;10471353;28;20086;-73
2022/08/30 04:14:30;;;;;;;10.23;6.45;;;;;;;13.21;95.79;101746.72;10489185;28;20117;-73
2022/08/30 04:19:31;;;;;;;9.95;6.68;;;;;;;13.10;95.77;101734.75;10451111;28;20052;-72
2022/08/30 04:24:33;;;;;;;10.25;5.90;;;;;;;12.97;96.70;101732.31;10449160;28;20083;-72
2022/08/30 04:29:33;;;;;;;15.93;7.75;;;;;;;12.98;97.79;101742.00;10439377;28;20056;-73
2022/08/30 04:34:34;;;;;;;11.05;6.40;;;;;;;13.06;98.01;101738.06;10404363;28;20073;-73
2022/08/30 04:39:34;;;;;;;8.98;6.53;;;;;;;13.12;97.83;101746.25;10434566;28;20206;-73
2022/08/30 04:44:35;;;;;;;8.40;5.82;;;;;;;13.24;98.00;101748.63;10420651;28;20036;-73
2022/08/30 04:49:35;;;;;;;10.63;7.13;;;;;;;13.28;97.33;101758.47;10424628;28;20029;-73
2022/08/30 04:54:36;;;;;;;11.77;6.97;;;;;;;13.30;97.54;101763.78;10452978;28;20490;-73
2022/08/30 04:59:37;;;;;;;15.40;9.57;;;;;;;13.55;96.94;101765.06;10429610;28;20037;-73
2022/08/30 05:05:38;;;;;;;7.70;5.45;;;;;;;13.58;96.44;101768.75;10419190;28;20041;-73
2022/08/30 05:09:59;;;;;;;11.65;6.60;;;;;;;13.59;96.60;101772.28;10457889;28;20052;-72
2022/08/30 05:14:59;;;;;;;12.77;6.88;;;;;;;13.72;96.30;101787.84;10419225;28;20523;-73
2022/08/30 05:20:00;;;;;;;8.27;6.32;;;;;;;13.83;96.20;101784.84;10429702;28;21804;-73
2022/08/30 05:25:01;;;;;;;10.53;7.20;;;;;;;13.98;95.61;101785.59;10429330;28;20409;-73
2022/08/30 05:30:02;;;;;;;10.50;6.80;;;;;;;14.16;94.44;101782.03;10385721;28;20045;-73
2022/08/30 05:35:07;;;;;;;9.38;6.07;;;;;;;14.38;93.43;101790.09;10425819;28;20120;-72
2022/08/30 05:40:08;;;;;;;9.07;6.93;;;;;;;14.61;92.52;101786.75;10378072;28;20037;-73
2022/08/30 05:45:09;;;;;;;9.48;7.05;;;;;;;14.88;91.34;101787.13;10383393;28;20784;-73
2022/08/30 05:50:10;;;;;;;9.40;5.95;;;;;;;15.16;88.10;101782.19;10403181;28;20128;-73
2022/08/30 05:55:10;;;;;;;10.98;6.13;;;;;;;15.35;88.09;101781.22;10436060;28;20049;-73
2022/08/30 06:00:13;;;;;;;10.48;6.43;;;;;;;15.57;86.32;101775.13;10453742;28;20044;-73
2022/08/30 06:05:14;;;;;;;9.23;5.63;;;;;;;15.78;84.02;101776.84;10402864;28;20055;-73
2022/08/30 06:10:15;;;;;;;10.43;5.45;;;;;;;16.38;83.85;101787.16;10429432;28;20080;-73
2022/08/30 06:15:16;;;;;;;6.82;5.10;;;;;;;17.46;77.85;101783.97;10422238;28;20045;-73
2022/08/30 06:20:18;;;;;;;7.90;6.07;;;;;;;17.95;75.53;101784.72;10394943;28;20052;-74
2022/08/30 06:25:19;;;;;;;9.73;4.18;;;;;;;19.44;66.38;101765.13;10379856;28;20045;-73
2022/08/30 06:30:20;;;;;;;6.10;4.97;;;;;;;18.93;70.35;101780.56;10383604;28;22050;-74
2022/08/30 06:35:20;;;;;;;10.70;6.28;;;;;;;20.78;62.11;101771.69;10425733;28;20082;-75
2022/08/30 06:40:21;;;;;;;5.78;4.88;;;;;;;22.24;57.75;101771.47;10440842;28;20098;-74
2022/08/30 06:45:22;;;;;;;10.23;6.23;;;;;;;22.02;56.04;101772.97;10396256;28;20520;-73
2022/08/30 06:50:24;;;;;;;9.27;6.03;;;;;;;21.30;58.40;101778.00;10441723;28;20560;-73
2022/08/30 06:55:24;;;;;;;;;;;;;;;21.51;57.87;101778.34;10404997;28;20037;-73
2022/08/30 07:00:24;;;;;;;11.87;7.33;;;;;;;21.76;56.72;101775.22;10442030;28;19927;-73
2022/08/30 07:05:25;;;;;;;8.33;5.17;;;;;;;21.59;57.67;101777.59;10440474;28;20514;-72
2022/08/30 07:10:26;;;;;;;9.70;5.60;;;;;;;21.69;56.55;101785.78;10414011;28;20041;-74
2022/08/30 07:15:26;;;;;;;7.80;5.13;;;;;;;22.02;56.36;101777.38;10388170;28;20037;-73
2022/08/30 07:20:27;;;;;;;9.00;5.57;;;;;;;22.96;53.05;101785.72;10373216;28;20140;-74
2022/08/30 07:25:27;;;;;;;12.27;6.40;;;;;;;23.34;52.02;101793.25;10418060;28;20070;-73
2022/08/30 07:30:28;;;;;;;9.53;5.33;;;;;;;23.59;51.02;101786.34;10417929;28;20047;-73
2022/08/30 07:35:28;;;;;;;8.63;5.13;;;;;;;22.73;54.12;101778.34;10398486;28;20034;-74
2022/08/30 07:40:29;;;;;;;25.60;6.63;;;;;;;23.81;51.96;101773.16;10392667;28;20037;-76
2022/08/30 07:45:29;;;;;;;8.27;5.63;;;;;;;24.94;47.59;101767.47;10432439;28;20046;-74
2022/08/30 07:50:30;;;;;;;9.30;5.00;;;;;;;25.32;46.88;101781.78;10366898;28;20486;-74
2022/08/30 07:55:31;;;;;;;10.40;5.03;;;;;;;25.02;47.67;101778.19;10385738;28;20076;-76
2022/08/30 08:00:31;;;;;;;10.40;6.03;;;;;;;24.20;49.26;101770.72;10443168;28;20125;-76
2022/08/30 08:05:38;;;;;;;9.37;5.73;;;;;;;24.49;49.38;101778.91;10442500;28;20129;-75
2022/08/30 08:10:39;;;;;;;12.55;5.03;;;;;;;25.16;47.37;101787.13;10440059;28;20037;-73
2022/08/30 08:15:40;;;;;;;8.30;5.22;;;;;;;24.45;48.93;101789.56;10454478;28;20030;-74
2022/08/30 08:20:41;;;;;;;7.07;4.53;;;;;;;24.06;50.40;101781.34;10440951;28;20039;-74
2022/08/30 08:25:42;;;;;;;9.00;4.90;;;;;;;23.89;51.64;101778.53;10448342;28;20068;-74
2022/08/30 08:30:42;;;;;;;9.60;5.03;;;;;;;23.83;50.18;101775.81;10461925;28;20039;-74
2022/08/30 08:35:43;;;;;;;10.17;5.53;;;;;;;25.07;48.57;101793.38;10444507;28;20037;-74
2022/08/30 08:40:43;;;;;;;7.83;5.17;;;;;;;25.94;44.92;101797.88;10443966;28;20410;-74
2022/08/30 08:45:56;;;;;;;10.63;4.83;;;;;;;26.87;42.28;101796.72;10456277;28;20044;-75
2022/08/30 08:56:16;;;;;;;11.10;4.65;;;;;;;27.46;41.30;101783.75;10450312;28;20116;-75
2022/08/30 09:01:18;;;;;;;13.63;5.45;;;;;;;27.73;40.23;101787.13;10461467;28;20048;-75
2022/08/30 09:06:30;;;;;;;7.55;4.22;;;;;;;28.36;39.10;101785.56;10476038;28;20039;-76
2022/08/30 09:11:33;;;;;;;8.57;4.20;;;;;;;27.76;40.04;101783.53;10474012;28;20356;-75
2022/08/30 09:16:50;;;;;;;10.23;3.78;;;;;;;26.61;42.15;101785.16;10426296;28;20033;-75
2022/08/30 09:21:58;;;;;;;6.72;4.47;;;;;;;25.82;44.61;101798.81;10476335;28;20036;-73
2022/08/30 09:27:18;;;;;;;7.43;3.55;;;;;;;27.81;42.20;101790.63;10426697;28;20037;-73
2022/08/30 09:32:40;;;;;;;16.53;5.93;;;;;;;29.35;38.04;101785.09;10442568;28;20137;-74
2022/08/30 09:38:08;;;;;;;7.93;4.32;;;;;;;30.15;35.75;101789.09;10470169;28;20504;-73
2022/08/30 09:43:10;;;;;;;11.63;3.47;;;;;;;30.32;34.85;101782.47;10463880;28;20041;-74
2022/08/30 09:48:31;;;;;;;13.30;6.93;;;;;;;30.69;33.98;101773.59;10445422;28;20045;-73
2022/08/30 09:53:33;;;;;;;7.33;3.20;;;;;;;30.42;34.13;101772.38;10458030;28;20040;-74
2022/08/30 09:58:53;;;;;;;10.38;5.95;;;;;;;30.68;33.02;101784.44;10408846;28;20045;-75
2022/08/30 10:04:30;;;;;;;9.52;4.47;;;;;;;30.61;33.63;101781.88;10439477;28;20121;-73
2022/08/30 10:09:33;;;;;;;11.27;3.30;;;;;;;30.80;33.98;101786.88;10454065;28;20033;-73
2022/08/30 10:14:56;;;;;;;8.40;3.22;;;;;;;30.50;34.07;101783.00;10452742;28;20037;-76
2022/08/30 10:20:06;;;;;;;6.05;2.17;;;;;;;30.44;35.02;101782.22;10483156;28;20132;-75
2022/08/30 10:25:16;;;;;;;7.90;2.90;;;;;;;30.53;33.56;101774.81;10414166;28;20045;-73
2022/08/30 10:30:17;;;;;;;6.53;3.20;;;;;;;30.21;34.47;101763.81;10432347;28;20037;-74
2022/08/30 10:35:20;;;;;;;9.10;3.00;;;;;;;30.53;32.61;101762.22;10478380;28;20162;-74
2022/08/30 10:45:55;;;;;;;6.18;2.40;;;;;;;30.00;34.80;101768.72;10439594;28;20528;-74
2022/08/30 10:50:57;;;;;;;6.95;2.58;;;;;;;30.61;32.34;101765.69;10448746;28;20047;-75
2022/08/30 10:56:06;;;;;;;6.25;2.92;;;;;;;29.57;33.30;101775.75;10395767;28;20037;-77
2022/08/30 11:01:06;;;;;;;6.80;2.78;;;;;;;29.31;35.33;101771.66;10399834;28;20044;-76
2022/08/30 11:06:10;;;;;;;6.80;2.73;;;;;;;29.33;34.39;101763.56;10427511;28;20072;-79
2022/08/30 11:11:40;;;;;;;7.20;2.13;;;;;;;29.70;36.46;101765.66;10440457;28;20044;-77
2022/08/30 11:16:42;;;;;;;7.63;2.80;;;;;;;30.26;32.83;101758.28;10365171;28;20497;-79
2022/08/30 11:21:43;;;;;;;4.10;2.38;;;;;;;30.50;33.56;101751.50;10396758;28;20174;-78
2022/08/30 11:26:43;;;;;;;9.83;1.83;;;;;;;31.44;32.62;101751.13;10385299;28;20211;-78
2022/08/30 11:31:44;;;;;;;5.23;2.30;;;;;;;30.88;32.06;101756.97;10398776;28;20041;-81
2022/08/30 11:36:45;;;;;;;6.47;2.50;;;;;;;30.48;31.00;101748.81;10399371;28;20033;-81
2022/08/30 11:41:46;;;;;;;7.97;2.93;;;;;;;29.91;31.66;101741.88;10400783;28;20095;-78
2022/08/30 11:46:48;;;;;;;7.45;3.08;;;;;;;29.55;33.31;101742.53;10398967;28;20052;-79
2022/08/30 11:52:07;;;;;;;5.82;2.40;;;;;;;28.83;34.75;101741.91;10398028;28;20045;-79
2022/08/30 11:57:38;;;;;;;6.22;2.83;;;;;;;29.21;33.93;101735.00;10439099;28;20496;-78
2022/08/30 12:02:49;;;;;;;7.53;2.83;;;;;;;28.35;35.00;101732.66;10409537;28;20060;-79
2022/08/30 12:08:00;;;;;;;4.80;2.17;;;;;;;28.19;35.08;101720.31;10451161;28;20033;-75
2022/08/30 12:13:00;;;;;;;4.03;2.07;;;;;;;28.24;36.21;101726.53;10412226;28;20041;-75
2022/08/30 12:23:34;;;;;;;7.57;2.50;;;;;;;28.30;35.79;101721.06;10428973;28;20036;-77
2022/08/30 12:28:34;;;;;;;5.10;2.08;;;;;;;29.43;33.22;101723.88;10462859;28;20036;-77
2022/08/30 12:33:46;;;;;;;5.87;2.40;;;;;;;29.51;33.09;101724.63;10445495;28;20029;-75
2022/08/30 12:38:50;;;;;;;4.85;2.80;;;;;;;29.45;33.73;101716.66;10479858;28;20025;-76
2022/08/30 12:43:51;;;;;;;5.13;2.13;;;;;;;29.63;32.27;101715.44;10446554;28;20435;-76
2022/08/30 12:48:51;;;;;;;8.18;2.78;;;;;;;29.94;32.38;101719.34;10445314;28;20167;-79
2022/08/30 12:53:52;;;;;;;8.50;2.83;;;;;;;29.05;34.17;101714.63;10428260;28;20045;-76
2022/08/30 12:58:52;;;;;;;5.03;1.70;;;;;;;28.24;35.40;101716.66;10425120;28;20049;-74
2022/08/30 13:04:01;;;;;;;8.30;1.80;;;;;;;29.65;33.41;101710.91;10419891;28;20477;-73
2022/08/30 13:09:01;;;;;;;7.07;2.20;;;;;;;30.89;31.56;101692.09;10432647;28;20044;-75
2022/08/30 13:14:33;;;;;;;4.23;2.47;;;;;;;30.60;30.94;101700.88;10404247;28;20620;-76
2022/08/30 13:19:36;;;;;;;4.90;2.08;;;;;;;28.42;34.03;101706.56;10363203;28;20486;-73
2022/08/30 13:24:36;;;;;;;12.10;2.75;;;;;;;27.77;34.72;101707.34;10394649;28;20439;-73
2022/08/30 13:29:37;;;;;;;8.00;2.00;;;;;;;28.21;35.62;101700.56;10361202;28;20037;-73
2022/08/30 13:34:37;;;;;;;4.77;2.10;;;;;;;28.14;36.06;101698.84;10360209;28;20038;-74
2022/08/30 13:39:39;;;;;;;5.30;2.60;;;;;;;30.48;32.24;101686.72;10362640;28;20137;-73
2022/08/30 13:44:40;;;;;;;4.78;1.85;;;;;;;29.87;31.47;101664.63;10361306;28;20048;-73
2022/08/30 13:49:42;;;;;;;7.37;2.63;;;;;;;30.64;31.22;101658.50;10363577;28;20038;-74
2022/08/30 13:54:42;;;;;;;2.83;1.85;;;;;;;31.95;28.71;101656.84;10374020;28;20046;-74
2022/08/30 13:59:43;;;;;;;7.73;1.80;;;;;;;31.43;29.41;101646.56;10393847;28;20446;-73
2022/08/30 14:04:43;;;;;;;6.63;2.27;;;;;;;31.66;28.77;101638.72;10360096;28;20064;-74
2022/08/30 14:09:44;;;;;;;9.53;2.27;;;;;;;32.07;27.15;101651.06;10381789;28;20493;-74
2022/08/30 14:14:44;;;;;;;6.80;1.70;;;;;;;30.71;30.19;101650.19;10404205;28;20064;-73
2022/08/30 14:19:45;;;;;;;6.47;2.87;;;;;;;31.79;28.70;101651.00;10411951;28;20049;-74
2022/08/30 14:24:45;;;;;;;3.73;1.93;;;;;;;32.11;29.02;101648.25;10420615;28;20032;-74
2022/08/30 14:29:47;;;;;;;12.97;7.17;;;;;;;31.44;28.75;101639.31;10402488;28;20128;-77
2022/08/30 14:34:47;;;;;;;;;;;;;;;31.30;28.55;101634.31;10399216;28;20030;-74
2022/08/30 14:39:48;;;;;;;5.73;2.30;;;;;;;31.64;28.68;101627.97;10399514;28;19923;-77
2022/08/30 14:44:48;;;;;;;6.72;3.00;;;;;;;30.92;29.61;101626.25;10398759;28;20080;-77
2022/08/30 14:49:49;;;;;;;5.73;2.23;;;;;;;28.06;33.17;101637.03;10398958;28;20129;-75
2022/08/30 14:54:49;;;;;;;4.30;2.10;;;;;;;28.10;33.94;101635.19;10398882;28;20400;-77
2022/08/30 14:59:50;;;;;;;3.70;2.20;;;;;;;27.35;34.87;101627.06;10381364;28;20047;-76
2022/08/30 15:04:50;;;;;;;4.30;2.03;;;;;;;27.35;36.39;101622.63;10419824;28;20132;-73
2022/08/30 15:09:51;;;;;;;5.83;2.40;;;;;;;28.67;33.32;101615.53;10418826;28;20489;-76
2022/08/30 15:14:51;;;;;;;4.30;2.30;;;;;;;29.81;31.24;101605.41;10401322;28;20140;-76
2022/08/30 15:19:52;;;;;;;3.93;2.23;;;;;;;28.98;32.92;101606.97;10402661;28;20063;-74
2022/08/30 15:24:54;;;;;;;6.57;2.00;;;;;;;28.64;33.94;101598.53;10431647;28;20048;-74
2022/08/30 15:29:54;;;;;;;3.33;2.38;;;;;;;29.10;34.42;101596.88;10433791;28;20049;-73
2022/08/30 15:34:55;;;;;;;2.70;1.60;;;;;;;29.09;32.33;101587.91;10441517;28;20037;-75
2022/08/30 15:39:55;;;;;;;3.63;1.63;;;;;;;29.18;32.96;101591.34;10430638;28;20037;-74
2022/08/30 15:44:56;;;;;;;5.00;2.23;;;;;;;29.24;32.89;101581.31;10407340;28;20061;-76
2022/08/30 15:49:58;;;;;;;20.80;11.87;;;;;;;28.25;34.26;101580.28;10422597;28;20385;-75
2022/08/30 15:54:59;;;;;;;5.35;2.88;;;;;;;27.51;35.17;101587.53;10420124;28;20286;-76
2022/08/30 15:59:59;;;;;;;6.30;3.03;;;;;;;26.57;36.69;101584.78;10402124;28;20119;-78
2022/08/30 16:05:00;;;;;;;7.17;1.97;;;;;;;25.97;37.66;101585.16;10437822;28;20121;-75
2022/08/30 16:10:01;;;;;;;6.10;2.10;;;;;;;25.54;38.38;101580.84;10468383;28;20037;-76
2022/08/30 16:15:01;;;;;;;4.63;1.50;;;;;;;24.91;39.44;101586.31;10463216;28;20041;-73
2022/08/30 16:20:02;;;;;;;7.80;2.17;;;;;;;24.32;40.63;101583.56;10421733;28;20131;-73
2022/08/30 16:25:03;;;;;;;6.87;2.13;;;;;;;24.08;41.75;101584.41;10430699;28;20048;-74
2022/08/30 16:30:04;;;;;;;3.47;2.33;;;;;;;23.99;41.83;101587.94;10446568;28;20048;-75
2022/08/30 16:35:05;;;;;;;4.83;2.07;;;;;;;23.95;41.93;101588.78;10438269;28;20037;-74
2022/08/30 16:40:07;;;;;;;4.23;1.77;;;;;;;23.97;41.79;101589.69;10438328;28;20040;-75
2022/08/30 16:45:07;;;;;;;5.85;2.35;;;;;;;23.96;41.34;101581.66;10457965;28;20044;-74
2022/08/30 16:50:09;;;;;;;3.03;1.80;;;;;;;23.92;41.76;101580.75;10449681;28;20091;-75
2022/08/30 16:55:09;;;;;;;3.40;1.98;;;;;;;23.89;42.26;101578.97;10396670;28;20549;-75
2022/08/30 17:00:11;;;;;;;7.83;3.50;;;;;;;23.86;41.87;101595.00;10413170;28;20095;-75
2022/08/30 17:05:11;;;;;;;9.32;5.20;;;;;;;23.66;42.39;101589.56;10409127;28;20049;-76
2022/08/30 17:10:12;;;;;;;9.90;6.27;;;;;;;23.65;43.30;101584.22;10404406;28;20053;-75
2022/08/30 17:15:13;;;;;;;7.10;3.60;;;;;;;23.49;43.29;101593.91;10403159;28;20049;-74
2022/08/30 17:20:14;;;;;;;16.43;4.33;;;;;;;23.47;43.14;101596.59;10407433;28;20478;-74
2022/08/30 17:25:14;;;;;;;4.10;1.90;;;;;;;23.35;43.32;101599.19;10417378;28;20040;-74
2022/08/30 17:30:15;;;;;;;3.67;1.63;;;;;;;23.11;43.39;101599.00;10433355;28;20113;-75
2022/08/30 17:35:15;;;;;;;6.60;2.37;;;;;;;22.97;44.03;101604.25;10452383;28;20117;-74
2022/08/30 17:40:16;;;;;;;5.18;1.48;;;;;;;22.75;44.24;101604.94;10444302;28;20497;-73
2022/08/30 17:45:17;;;;;;;5.80;2.22;;;;;;;22.47;44.80;101613.56;10430486;28;20036;-76
2022/08/30 17:50:18;;;;;;;4.70;1.67;;;;;;;22.28;45.33;101621.34;10439929;28;20128;-75
2022/08/30 17:55:19;;;;;;;6.28;2.58;;;;;;;22.20;45.37;101630.13;10440165;28;20037;-76
2022/08/30 18:00:19;;;;;;;7.07;2.30;;;;;;;21.92;45.93;101638.69;10442324;28;20025;-75
2022/08/30 18:05:20;;;;;;;5.30;1.70;;;;;;;21.75;46.48;101648.22;10440677;28;20044;-76
2022/08/30 18:10:20;;;;;;;8.95;2.13;;;;;;;21.46;47.24;101646.00;10439981;28;20134;-76
2022/08/30 18:15:21;;;;;;;8.23;3.33;;;;;;;21.24;47.70;101643.91;10442418;28;20079;-79
2022/08/30 18:20:21;;;;;;;7.45;2.40;;;;;;;20.93;49.04;101654.06;10438236;28;20125;-73
2022/08/30 18:25:22;;;;;;;6.75;2.50;;;;;;;20.77;49.51;101660.81;10421199;28;20069;-77
2022/08/30 18:30:23;;;;;;;8.20;2.22;;;;;;;20.59;50.07;101665.78;10440276;28;20124;-76
2022/08/30 18:35:24;;;;;;;7.97;1.90;;;;;;;20.39;50.72;101671.63;10438866;28;20037;-75
2022/08/30 18:40:25;;;;;;;5.80;2.73;;;;;;;20.31;51.04;101670.56;10439620;28;20053;-76
2022/08/30 18:45:25;;;;;;;6.85;2.00;;;;;;;20.27;51.11;101679.34;10441869;28;20154;-74
2022/08/30 18:50:27;;;;;;;5.65;2.60;;;;;;;20.17;51.23;101681.81;10422434;28;20085;-75
2022/08/30 18:55:27;;;;;;;11.20;1.77;;;;;;;19.98;51.82;101680.53;10419338;28;20033;-76
2022/08/30 19:00:28;;;;;;;6.07;2.35;;;;;;;19.91;52.01;101681.28;10419631;28;20044;-76
2022/08/30 19:05:28;;;;;;;4.18;2.03;;;;;;;19.88;52.14;101689.13;10416589;28;20052;-75
2022/08/30 19:10:29;;;;;;;6.72;2.13;;;;;;;19.92;52.07;101689.25;10386856;28;20402;-74
2022/08/30 19:15:30;;;;;;;3.85;1.48;;;;;;;19.88;52.17;101692.69;10375451;28;20033;-74
2022/08/30 19:20:30;;;;;;;5.13;1.88;;;;;;;19.77;52.51;101687.13;10419361;28;20087;-74
2022/08/30 19:25:31;;;;;;;12.20;1.50;;;;;;;19.78;52.54;101682.72;10417910;28;20438;-75
2022/08/30 19:30:32;;;;;;;4.03;1.67;;;;;;;19.75;52.43;101678.25;10385368;28;20042;-75
2022/08/30 19:35:32;;;;;;;4.35;1.90;;;;;;;19.64;52.83;101688.59;10380524;28;20029;-76
2022/08/30 19:40:33;;;;;;;4.00;1.73;;;;;;;19.55;53.00;101688.38;10409137;28;20133;-76
2022/08/30 19:45:33;;;;;;;5.68;2.00;;;;;;;19.56;53.09;101698.16;10437917;28;20094;-75
2022/08/30 19:50:33;;;;;;;5.85;1.58;;;;;;;19.45;53.15;101697.00;10430364;28;20068;-74
2022/08/30 19:55:36;;;;;;;8.35;1.90;;;;;;;19.32;54.15;101695.81;10411091;28;20504;-75
2022/08/30 20:00:36;;;;;;;5.10;1.98;;;;;;;19.43;53.29;101701.38;10407877;28;20040;-75
2022/08/30 20:05:37;;;;;;;5.05;1.70;;;;;;;19.35;53.91;101699.41;10406288;28;20136;-74
2022/08/30 20:10:37;;;;;;;5.97;2.63;;;;;;;19.17;54.17;101698.97;10471768;28;20061;-74
2022/08/30 20:15:38;;;;;;;8.68;1.90;;;;;;;19.01;54.68;101709.16;10422774;28;20116;-74
2022/08/30 20:20:38;;;;;;;4.75;1.90;;;;;;;18.88;54.99;101715.88;10442800;28;20479;-74
2022/08/30 20:25:39;;;;;;;3.78;1.60;;;;;;;18.80;55.48;101712.13;10442176;28;20037;-75
2022/08/30 20:30:40;;;;;;;3.15;1.58;;;;;;;18.79;55.68;101716.53;10445288;28;20116;-75
2022/08/30 20:35:42;;;;;;;6.10;2.28;;;;;;;18.73;55.77;101712.81;10429343;28;20051;-75
2022/08/30 20:40:44;;;;;;;4.40;1.75;;;;;;;18.61;56.29;101714.28;10422956;28;20033;-75
2022/08/30 20:45:45;;;;;;;4.15;1.75;;;;;;;18.47;57.04;101713.88;10445210;28;20503;-76
2022/08/30 20:50:45;;;;;;;2.20;1.63;;;;;;;18.27;57.69;101723.91;10446524;28;20041;-75
2022/08/30 20:55:46;;;;;;;6.90;1.90;;;;;;;18.01;58.59;101721.38;10460609;28;20048;-76
2022/08/30 21:00:51;;;;;;;4.15;2.33;;;;;;;17.71;59.47;101724.81;10485016;28;20094;-76
2022/08/30 21:05:51;;;;;;;4.25;1.52;;;;;;;17.45;60.52;101726.63;10478209;28;20483;-75
2022/08/30 21:10:53;;;;;;;3.22;1.83;;;;;;;17.22;61.57;101723.22;10486570;28;20047;-76
2022/08/30 21:15:54;;;;;;;4.45;1.95;;;;;;;17.05;62.19;101727.91;10453874;28;20068;-76
2022/08/30 21:20:55;;;;;;;4.40;1.70;;;;;;;17.00;62.59;101738.34;10427252;28;20370;-76
2022/08/30 21:25:57;;;;;;;3.60;2.03;;;;;;;16.96;62.79;101734.63;10458136;28;20425;-76
2022/08/30 21:31:08;;;;;;;3.40;2.20;;;;;;;16.97;62.92;101744.41;10484707;28;20484;-76
2022/08/30 21:41:29;;;;;;;4.10;2.05;;;;;;;17.15;62.94;101753.81;10444346;28;20032;-76
2022/08/30 21:46:30;;;;;;;3.45;2.40;;;;;;;17.17;63.04;101758.34;10461740;28;20037;-76
2022/08/30 21:51:33;;;;;;;2.53;2.07;;;;;;;17.23;63.12;101757.63;10466136;28;20126;-76
2022/08/30 21:56:34;;;;;;;2.67;1.50;;;;;;;17.25;63.23;101758.59;10464280;28;20101;-76
2022/08/30 22:01:35;;;;;;;4.32;1.70;;;;;;;17.22;63.68;101770.81;10426194;28;20033;-76
2022/08/30 22:06:37;;;;;;;1.85;1.30;;;;;;;17.21;63.50;101771.66;10458875;28;20040;-77
2022/08/30 22:11:37;;;;;;;8.88;1.67;;;;;;;17.34;63.01;101773.91;10467164;28;20043;-77
2022/08/30 22:16:39;;;;;;;3.20;1.58;;;;;;;17.34;63.18;101776.53;10445860;28;20493;-78
2022/08/30 22:21:40;;;;;;;2.73;1.40;;;;;;;17.22;63.98;101769.06;10424995;28;20055;-77
2022/08/30 22:26:42;;;;;;;6.65;1.88;;;;;;;17.15;64.43;101775.00;10459867;28;20404;-76
2022/08/30 22:31:42;;;;;;;4.78;1.75;;;;;;;17.40;63.11;101782.03;10424000;28;20378;-76
2022/08/30 22:36:43;;;;;;;5.05;2.50;;;;;;;17.78;61.38;101773.56;10444466;28;20045;-76
2022/08/30 22:41:44;;;;;;;3.58;1.83;;;;;;;17.75;61.77;101773.47;10442146;28;20044;-76
2022/08/30 22:46:44;;;;;;;3.40;2.10;;;;;;;17.49;63.79;101769.97;10459888;28;20036;-76
2022/08/30 22:51:45;;;;;;;4.53;1.80;;;;;;;17.23;63.98;101773.50;10464525;28;20040;-76
2022/08/30 22:56:45;;;;;;;3.80;2.10;;;;;;;17.27;63.14;101770.13;10464600;28;20132;-76
2022/08/30 23:01:46;;;;;;;5.43;1.58;;;;;;;17.47;62.19;101761.97;10482396;28;20101;-76
2022/08/30 23:06:46;;;;;;;5.38;2.47;;;;;;;17.59;61.71;101758.84;10440698;28;20132;-76
2022/08/30 23:11:47;;;;;;;4.18;1.90;;;;;;;17.65;61.62;101768.72;10442922;28;20045;-76
2022/08/30 23:16:47;;;;;;;4.03;1.48;;;;;;;17.61;62.04;101765.09;10460343;28;20074;-76
2022/08/30 23:21:48;;;;;;;2.83;1.77;;;;;;;17.57;61.51;101760.53;10470529;28;20048;-76
